Time;durP1;ratioP1;P1;durP2;ratioP2;P2;SDS_P1;SDS_P2;PMS_P1;PMS_P2;Temp;Humidity;BMP_temperature;BMP_pressure;BME280_temperature;BME280_humidity;BME280_pressure;Samples;Min_cycle;Max_cycle;Signal;HPM_P1;HPM_P2
2021/05/30 00:00:50;;;;;;;;;;;;;;;-145.50;100.00;65435.88;4979724;28;20132;-73
2021/05/30 00:03:17;;;;;;;13.00;9.63;;;;;;;-145.50;100.00;65435.88;4970432;28;19932;-73
2021/05/30 00:05:45;;;;;;;13.80;9.60;;;;;;;-145.50;100.00;65435.88;4978823;28;20050;-73
2021/05/30 00:08:13;;;;;;;17.67;11.30;;;;;;;-145.50;100.00;65435.88;4974388;28;20154;-73
2021/05/30 00:10:40;;;;;;;14.93;10.30;;;;;;;-145.50;100.00;65435.88;4970016;28;20116;-74
2021/05/30 00:13:07;;;;;;;15.63;10.98;;;;;;;-145.50;100.00;65435.88;4978625;28;20463;-74
2021/05/30 00:15:34;;;;;;;16.27;10.52;;;;;;;-145.50;100.00;65435.88;4973403;28;20428;-74
2021/05/30 00:18:00;;;;;;;14.68;10.73;;;;;;;-145.50;100.00;65435.88;4978950;28;20261;-74
2021/05/30 00:20:27;;;;;;;16.48;10.40;;;;;;;-145.50;100.00;65435.88;4982592;28;20086;-74
2021/05/30 00:22:53;;;;;;;16.25;10.88;;;;;;;-145.50;100.00;65435.88;4970442;28;20054;-74
2021/05/30 00:25:20;;;;;;;17.85;11.30;;;;;;;-145.50;100.00;65435.88;4979334;28;20136;-74
2021/05/30 00:27:47;;;;;;;16.65;10.95;;;;;;;-145.50;100.00;65435.88;4974514;28;20047;-74
2021/05/30 00:30:14;;;;;;;16.35;11.00;;;;;;;-145.50;100.00;65435.88;4982945;28;20210;-74
2021/05/30 00:32:40;;;;;;;15.70;10.65;;;;;;;-145.50;100.00;65435.88;4970098;28;20077;-74
2021/05/30 00:35:07;;;;;;;16.73;11.90;;;;;;;-145.50;100.00;65435.88;4975623;28;20125;-74
2021/05/30 00:37:34;;;;;;;21.23;10.77;;;;;;;-145.50;100.00;65435.88;4971720;28;20054;-74
2021/05/30 00:40:00;;;;;;;17.05;11.52;;;;;;;-145.50;100.00;65435.88;4972155;28;20140;-74
2021/05/30 00:42:27;;;;;;;16.63;9.98;;;;;;;-145.50;100.00;65435.88;4978976;28;20132;-74
2021/05/30 00:44:53;;;;;;;17.88;11.20;;;;;;;-145.50;100.00;65435.88;4975237;28;20046;-74
2021/05/30 00:47:20;;;;;;;15.55;11.13;;;;;;;-145.50;100.00;65435.88;4979864;28;20145;-74
2021/05/30 00:49:46;;;;;;;16.95;10.73;;;;;;;-145.50;100.00;65435.88;4955097;28;20058;-74
2021/05/30 00:52:13;;;;;;;14.85;11.60;;;;;;;-145.50;100.00;65435.88;4975206;28;20089;-74
2021/05/30 00:54:40;;;;;;;17.63;10.70;;;;;;;-145.50;100.00;65435.88;4978764;28;20419;-74
2021/05/30 00:57:08;;;;;;;17.38;11.05;;;;;;;-145.50;100.00;65435.88;4971473;28;20508;-74
2021/05/30 00:59:36;;;;;;;17.75;11.63;;;;;;;-145.50;100.00;65435.88;4961982;28;20045;-74
2021/05/30 01:02:03;;;;;;;18.90;12.30;;;;;;;-145.50;100.00;65435.88;4971081;28;20132;-74
2021/05/30 01:04:30;;;;;;;23.13;12.15;;;;;;;-145.50;100.00;65435.88;4958791;28;20818;-74
2021/05/30 01:06:58;;;;;;;17.20;11.60;;;;;;;-145.50;100.00;65435.88;4968972;28;20081;-74
2021/05/30 01:09:26;;;;;;;21.08;12.27;;;;;;;-145.50;100.00;65435.88;4977259;28;20129;-74
2021/05/30 01:11:54;;;;;;;18.58;13.23;;;;;;;-145.50;100.00;65435.88;4975530;28;20058;-74
2021/05/30 01:14:21;;;;;;;20.50;12.48;;;;;;;-145.50;100.00;65435.88;4955320;28;20498;-74
2021/05/30 01:16:48;;;;;;;18.20;12.18;;;;;;;-145.50;100.00;65435.88;4978618;28;20081;-74
2021/05/30 01:19:16;;;;;;;19.13;12.20;;;;;;;-145.50;100.00;65435.88;4970547;28;20054;-74
2021/05/30 01:21:46;;;;;;;20.23;12.63;;;;;;;-145.50;100.00;65435.88;4976360;28;20082;-74
2021/05/30 01:24:14;;;;;;;22.33;13.75;;;;;;;-145.50;100.00;65435.88;4953722;28;20077;-74
2021/05/30 01:26:41;;;;;;;20.98;14.38;;;;;;;-145.50;100.00;65435.88;4961657;28;20186;-74
2021/05/30 01:29:08;;;;;;;20.25;13.38;;;;;;;-145.50;100.00;65435.88;4979799;28;20741;-74
2021/05/30 01:31:35;;;;;;;21.30;12.50;;;;;;;-145.50;100.00;65435.88;4953101;28;20109;-72
2021/05/30 01:34:03;;;;;;;19.42;12.70;;;;;;;-145.50;100.00;65435.88;4973897;28;20054;-74
2021/05/30 01:36:30;;;;;;;26.40;12.55;;;;;;;-145.50;100.00;65435.88;4971263;28;20488;-74
2021/05/30 01:38:56;;;;;;;18.52;12.77;;;;;;;-145.50;100.00;65435.88;4977542;28;20078;-72
2021/05/30 01:41:23;;;;;;;21.35;13.50;;;;;;;-145.50;100.00;65435.88;4978665;28;20078;-72
2021/05/30 01:43:50;;;;;;;22.45;12.63;;;;;;;-145.50;100.00;65435.88;4974131;28;20077;-74
2021/05/30 01:46:17;;;;;;;22.45;12.77;;;;;;;-145.50;100.00;65435.88;4974858;28;20088;-75
2021/05/30 01:48:44;;;;;;;20.42;13.25;;;;;;;-145.50;100.00;65435.88;4972470;28;20082;-73
2021/05/30 01:51:10;;;;;;;17.38;11.68;;;;;;;-145.50;100.00;65435.88;4977710;28;20086;-75
2021/05/30 01:53:51;;;;;;;16.95;11.38;;;;;;;-145.50;100.00;65435.88;4953081;28;20571;-74
2021/05/30 01:59:04;;;;;;;18.55;11.00;;;;;;;-145.50;100.00;65435.88;4965594;28;20136;-72
2021/05/30 02:01:32;;;;;;;17.30;11.30;;;;;;;-145.50;100.00;65435.88;4957796;28;20054;-74
2021/05/30 02:04:02;;;;;;;20.50;11.95;;;;;;;-145.50;100.00;65435.88;4977481;28;20050;-72
2021/05/30 02:06:30;;;;;;;22.25;12.48;;;;;;;-145.50;100.00;65435.88;4955486;28;20941;-74
2021/05/30 02:08:58;;;;;;;17.50;11.10;;;;;;;-145.50;100.00;65435.88;4978925;28;20133;-74
2021/05/30 02:11:26;;;;;;;20.95;12.45;;;;;;;-145.50;100.00;65435.88;4968351;28;20362;-74
2021/05/30 02:13:53;;;;;;;22.85;12.13;;;;;;;-145.50;100.00;65435.88;4970581;28;20157;-74
2021/05/30 02:16:20;;;;;;;19.02;11.88;;;;;;;-145.50;100.00;65435.88;4975823;28;20054;-74
2021/05/30 02:18:46;;;;;;;17.45;11.45;;;;;;;-145.50;100.00;65435.88;4963789;28;20051;-74
2021/05/30 02:21:13;;;;;;;20.15;11.50;;;;;;;-145.50;100.00;65435.88;4981741;28;20152;-73
2021/05/30 02:23:39;;;;;;;21.15;11.98;;;;;;;-145.50;100.00;65435.88;4974412;28;20342;-74
2021/05/30 02:26:06;;;;;;;19.80;11.48;;;;;;;-145.50;100.00;65435.88;4979271;28;20082;-74
2021/05/30 02:28:33;;;;;;;21.77;11.63;;;;;;;-145.50;100.00;65435.88;4953779;28;20545;-73
2021/05/30 02:30:59;;;;;;;20.17;12.00;;;;;;;-145.50;100.00;65435.88;4982112;28;20137;-72
2021/05/30 02:33:26;;;;;;;21.15;12.05;;;;;;;-145.50;100.00;65435.88;4975561;28;20093;-73
2021/05/30 02:35:53;;;;;;;21.52;12.18;;;;;;;-145.50;100.00;65435.88;4965284;28;20050;-72
2021/05/30 02:38:19;;;;;;;18.75;11.55;;;;;;;-145.50;100.00;65435.88;4981326;28;20585;-73
2021/05/30 02:40:46;;;;;;;16.73;10.85;;;;;;;-145.50;100.00;65435.88;4968892;28;20094;-73
2021/05/30 02:43:12;;;;;;;19.33;11.95;;;;;;;-145.50;100.00;65435.88;4976292;28;20167;-73
2021/05/30 02:45:39;;;;;;;18.60;11.60;;;;;;;-145.50;100.00;65435.88;4961646;28;20116;-73
2021/05/30 02:48:05;;;;;;;18.63;10.80;;;;;;;-145.50;100.00;65435.88;4984618;28;20213;-72
2021/05/30 02:50:32;;;;;;;20.63;11.63;;;;;;;-145.50;100.00;65435.88;4980681;28;20071;-72
2021/05/30 02:52:59;;;;;;;25.30;11.43;;;;;;;-145.50;100.00;65435.88;4971528;28;20152;-72
2021/05/30 02:55:25;;;;;;;20.05;11.95;;;;;;;-145.50;100.00;65435.88;4974316;28;20125;-72
2021/05/30 02:57:52;;;;;;;18.10;11.35;;;;;;;-145.50;100.00;65435.88;4972304;28;20081;-72
2021/05/30 03:00:22;;;;;;;17.00;11.10;;;;;;;-145.50;100.00;65435.88;4981387;28;20109;-72
2021/05/30 03:02:49;;;;;;;20.05;11.45;;;;;;;-145.50;100.00;65435.88;4970827;28;20062;-74
2021/05/30 03:05:15;;;;;;;20.90;11.65;;;;;;;-145.50;100.00;65435.88;4982120;28;20062;-72
2021/05/30 03:07:43;;;;;;;23.13;11.70;;;;;;;-145.50;100.00;65435.88;4976930;28;20752;-72
2021/05/30 03:10:10;;;;;;;19.30;11.77;;;;;;;-145.50;100.00;65435.88;4956402;28;20101;-72
2021/05/30 03:12:37;;;;;;;22.77;11.90;;;;;;;-145.50;100.00;65435.88;4976725;28;20153;-72
2021/05/30 03:15:04;;;;;;;19.33;11.95;;;;;;;-145.50;100.00;65435.88;4976738;28;20046;-72
2021/05/30 03:17:31;;;;;;;21.45;12.07;;;;;;;-145.50;100.00;65435.88;4981860;28;20108;-73
2021/05/30 03:19:58;;;;;;;20.73;11.75;;;;;;;-145.50;100.00;65435.88;4957996;28;20065;-72
2021/05/30 03:22:24;;;;;;;21.23;11.70;;;;;;;-145.50;100.00;65435.88;4974144;28;20450;-72
2021/05/30 03:24:51;;;;;;;20.10;12.55;;;;;;;-145.50;100.00;65435.88;4977459;28;20101;-72
2021/05/30 03:27:17;;;;;;;23.30;13.43;;;;;;;-145.50;100.00;65435.88;4970943;28;20140;-72
2021/05/30 03:29:43;;;;;;;21.17;11.63;;;;;;;-145.50;100.00;65435.88;4982496;28;20137;-73
2021/05/30 03:32:10;;;;;;;28.52;13.68;;;;;;;-145.50;100.00;65435.88;4970123;28;20282;-73
2021/05/30 03:34:36;;;;;;;22.90;12.85;;;;;;;-145.50;100.00;65435.88;4983304;28;20146;-72
2021/05/30 03:37:03;;;;;;;23.50;12.48;;;;;;;-145.50;100.00;65435.88;4970778;28;20082;-72
2021/05/30 03:39:31;;;;;;;20.23;12.70;;;;;;;-145.50;100.00;65435.88;4978797;28;20560;-73
2021/05/30 03:42:06;;;;;;;21.77;12.80;;;;;;;-145.50;100.00;65435.88;4978246;28;20160;-73
2021/05/30 03:44:33;;;;;;;21.73;13.00;;;;;;;-145.50;100.00;65435.88;4973951;28;20585;-72
2021/05/30 03:46:59;;;;;;;25.52;13.45;;;;;;;-145.50;100.00;65435.88;4981528;28;20097;-73
2021/05/30 03:49:26;;;;;;;21.30;12.98;;;;;;;-145.50;100.00;65435.88;4974092;28;20583;-73
2021/05/30 03:51:53;;;;;;;20.75;12.48;;;;;;;-145.50;100.00;65435.88;4974635;28;20402;-73
2021/05/30 03:54:19;;;;;;;24.40;13.13;;;;;;;-145.50;100.00;65435.88;4973982;28;20137;-73
2021/05/30 03:56:45;;;;;;;22.10;13.05;;;;;;;-145.50;100.00;65435.88;4977773;28;20077;-73
2021/05/30 03:59:12;;;;;;;22.98;14.00;;;;;;;-145.50;100.00;65435.88;4965161;28;20596;-73
2021/05/30 04:01:40;;;;;;;20.23;13.70;;;;;;;-145.50;100.00;65435.88;4971465;28;20161;-73
2021/05/30 04:04:06;;;;;;;25.63;13.32;;;;;;;-145.50;100.00;65435.88;4978474;28;20145;-73
2021/05/30 04:06:33;;;;;;;22.02;12.52;;;;;;;-145.50;100.00;65435.88;4968191;28;20145;-73
2021/05/30 04:08:59;;;;;;;21.77;13.45;;;;;;;-145.50;100.00;65435.88;4963500;28;20160;-73
2021/05/30 04:11:26;;;;;;;22.95;13.13;;;;;;;-145.50;100.00;65435.88;4976965;28;20136;-73
2021/05/30 04:13:52;;;;;;;21.67;13.25;;;;;;;-145.50;100.00;65435.88;4962459;28;20153;-74
2021/05/30 04:16:19;;;;;;;19.50;12.88;;;;;;;-145.50;100.00;65435.88;4964534;28;20177;-73
2021/05/30 04:18:45;;;;;;;24.80;12.98;;;;;;;-145.50;100.00;65435.88;4973046;28;20054;-73
2021/05/30 04:21:12;;;;;;;26.67;13.60;;;;;;;-145.50;100.00;65435.88;4972394;28;20166;-73
2021/05/30 04:23:38;;;;;;;23.88;13.50;;;;;;;-145.50;100.00;65435.88;4955464;28;20113;-73
2021/05/30 04:26:05;;;;;;;22.85;12.57;;;;;;;-145.50;100.00;65435.88;4979633;28;20133;-72
2021/05/30 04:28:32;;;;;;;24.42;14.25;;;;;;;-145.50;100.00;65435.88;4980060;28;20084;-73
2021/05/30 04:30:59;;;;;;;28.45;14.32;;;;;;;-145.50;100.00;65435.88;4952772;28;20113;-73
2021/05/30 04:33:25;;;;;;;26.40;13.88;;;;;;;-145.50;100.00;65435.88;4970732;28;20058;-73
2021/05/30 04:35:52;;;;;;;21.38;13.25;;;;;;;-145.50;100.00;65435.88;4971743;28;20145;-73
2021/05/30 04:38:19;;;;;;;21.85;12.73;;;;;;;-145.50;100.00;65435.88;4978367;28;20085;-73
2021/05/30 04:40:47;;;;;;;24.40;13.82;;;;;;;-145.50;100.00;65435.88;4971499;28;20054;-73
2021/05/30 04:43:14;;;;;;;27.02;14.32;;;;;;;-145.50;100.00;65435.88;4982667;28;20058;-73
2021/05/30 04:45:41;;;;;;;21.45;13.48;;;;;;;-145.50;100.00;65435.88;4974626;28;20187;-73
2021/05/30 04:48:08;;;;;;;22.13;13.07;;;;;;;-145.50;100.00;65435.88;4970127;28;20228;-73
2021/05/30 04:50:35;;;;;;;23.15;13.48;;;;;;;-145.50;100.00;65435.88;4979111;28;20050;-73
2021/05/30 04:53:02;;;;;;;21.23;13.93;;;;;;;-145.50;100.00;65435.88;4971549;28;20090;-73
2021/05/30 04:55:28;;;;;;;26.30;13.15;;;;;;;-145.50;100.00;65435.88;4977973;28;20050;-73
2021/05/30 04:57:55;;;;;;;21.85;13.60;;;;;;;-145.50;100.00;65435.88;4970845;28;20089;-73
2021/05/30 05:00:21;;;;;;;22.15;13.65;;;;;;;-145.50;100.00;65435.88;4975902;28;20494;-73
2021/05/30 05:02:48;;;;;;;22.55;13.50;;;;;;;-145.50;100.00;65435.88;4974165;28;20058;-73
2021/05/30 05:05:15;;;;;;;22.63;13.50;;;;;;;-145.50;100.00;65435.88;4971528;28;20593;-73
2021/05/30 05:07:43;;;;;;;27.13;15.05;;;;;;;-145.50;100.00;65435.88;4962755;28;20164;-73
2021/05/30 05:10:11;;;;;;;23.67;14.40;;;;;;;-145.50;100.00;65435.88;4972767;28;20054;-73
2021/05/30 05:12:38;;;;;;;24.65;14.65;;;;;;;-145.50;100.00;65435.88;4977819;28;20104;-73
2021/05/30 05:15:05;;;;;;;27.17;14.40;;;;;;;-145.50;100.00;65435.88;4962763;28;20085;-73
2021/05/30 05:17:32;;;;;;;25.52;14.23;;;;;;;-145.50;100.00;65435.88;4978783;28;20597;-73
2021/05/30 05:19:58;;;;;;;23.42;14.43;;;;;;;-145.50;100.00;65435.88;4979316;28;20089;-73
2021/05/30 05:22:25;;;;;;;26.25;14.70;;;;;;;-145.50;100.00;65435.88;4968855;28;20090;-73
2021/05/30 05:25:00;;;;;;;26.38;14.82;;;;;;;-145.50;100.00;65435.88;4979148;28;20057;-73
2021/05/30 05:27:28;;;;;;;26.67;14.77;;;;;;;-145.50;100.00;65435.88;4967010;28;20065;-73
2021/05/30 05:29:54;;;;;;;26.52;14.70;;;;;;;-145.50;100.00;65435.88;4972497;28;20076;-73
2021/05/30 05:32:21;;;;;;;21.20;13.60;;;;;;;-145.50;100.00;65435.88;4971063;28;20077;-73
2021/05/30 05:34:47;;;;;;;23.45;15.20;;;;;;;-145.50;100.00;65435.88;4961681;28;20150;-72
2021/05/30 05:37:14;;;;;;;27.15;14.95;;;;;;;-145.50;100.00;65435.88;4978935;28;20058;-73
2021/05/30 05:39:40;;;;;;;25.13;15.88;;;;;;;-145.50;100.00;65435.88;4970497;28;20050;-73
2021/05/30 05:42:07;;;;;;;25.67;15.52;;;;;;;-145.50;100.00;65435.88;4973908;28;20238;-73
2021/05/30 05:44:33;;;;;;;24.50;16.08;;;;;;;-145.50;100.00;65435.88;4966423;28;20541;-73
2021/05/30 05:47:00;;;;;;;26.55;16.30;;;;;;;-145.50;100.00;65435.88;4977953;28;20082;-73
2021/05/30 05:49:27;;;;;;;27.80;16.25;;;;;;;-145.50;100.00;65435.88;4953557;28;20070;-73
2021/05/30 05:51:53;;;;;;;25.88;15.75;;;;;;;-145.50;100.00;65435.88;4981724;28;20085;-74
2021/05/30 05:54:39;;;;;;;26.90;16.23;;;;;;;-145.50;100.00;65435.88;4982466;28;20054;-73
2021/05/30 05:57:06;;;;;;;25.05;14.88;;;;;;;-145.50;100.00;65435.88;4967760;28;20178;-73
2021/05/30 05:59:33;;;;;;;24.77;15.20;;;;;;;-145.50;100.00;65435.88;4978149;28;20085;-73
2021/05/30 06:01:59;;;;;;;24.30;15.75;;;;;;;-145.50;100.00;65435.88;4973188;28;20057;-73
2021/05/30 06:04:26;;;;;;;26.77;16.25;;;;;;;-145.50;100.00;65435.88;4983021;28;20077;-73
2021/05/30 06:06:52;;;;;;;28.98;16.35;;;;;;;-145.50;100.00;65435.88;4961757;28;20050;-73
2021/05/30 06:09:19;;;;;;;27.00;16.38;;;;;;;-145.50;100.00;65435.88;4980548;28;20561;-73
2021/05/30 06:11:45;;;;;;;29.33;17.00;;;;;;;-145.50;100.00;65435.88;4977175;28;20069;-73
2021/05/30 06:14:12;;;;;;;25.67;15.20;;;;;;;-145.50;100.00;65435.88;4974332;28;20548;-73
2021/05/30 06:16:38;;;;;;;26.58;16.65;;;;;;;-145.50;100.00;65435.88;4965355;28;20082;-73
2021/05/30 06:19:05;;;;;;;31.83;17.77;;;;;;;-145.50;100.00;65435.88;4978261;28;20742;-73
2021/05/30 06:21:31;;;;;;;32.33;17.27;;;;;;;-145.50;100.00;65435.88;4980512;28;20715;-73
2021/05/30 06:23:58;;;;;;;26.17;16.35;;;;;;;-145.50;100.00;65435.88;4974385;28;20106;-72
2021/05/30 06:26:25;;;;;;;32.15;16.63;;;;;;;-145.50;100.00;65435.88;4975026;28;20054;-72
2021/05/30 06:28:52;;;;;;;25.85;16.00;;;;;;;-145.50;100.00;65435.88;4979361;28;20089;-72
2021/05/30 06:31:18;;;;;;;34.47;18.67;;;;;;;-145.50;100.00;65435.88;4956919;28;20100;-74
2021/05/30 06:33:45;;;;;;;28.63;15.57;;;;;;;-145.50;100.00;65435.88;4979134;28;20262;-74
2021/05/30 06:36:11;;;;;;;26.15;15.73;;;;;;;-145.50;100.00;65435.88;4978099;28;20161;-74
2021/05/30 06:38:38;;;;;;;29.92;16.70;;;;;;;-145.50;100.00;65435.88;4981487;28;20542;-73
2021/05/30 06:41:04;;;;;;;26.23;16.85;;;;;;;-145.50;100.00;65435.88;4975987;28;20054;-72
2021/05/30 06:43:30;;;;;;;25.50;16.85;;;;;;;-145.50;100.00;65435.88;4962991;28;20109;-72
2021/05/30 06:45:57;;;;;;;27.38;16.40;;;;;;;-145.50;100.00;65435.88;4980318;28;20110;-72
2021/05/30 06:48:24;;;;;;;28.83;16.80;;;;;;;-145.50;100.00;65435.88;4977194;28;20058;-72
2021/05/30 06:53:36;;;;;;;26.08;17.42;;;;;;;-145.50;100.00;65435.88;4971519;28;20086;-72
2021/05/30 06:56:02;;;;;;;25.95;16.27;;;;;;;-145.50;100.00;65435.88;4977181;28;20105;-74
2021/05/30 06:58:28;;;;;;;28.05;16.92;;;;;;;-145.50;100.00;65435.88;4974986;28;20163;-74
2021/05/30 07:00:55;;;;;;;26.02;16.73;;;;;;;-145.50;100.00;65435.88;4980091;28;20177;-74
2021/05/30 07:03:22;;;;;;;27.63;17.05;;;;;;;-145.50;100.00;65435.88;4984524;28;20058;-72
2021/05/30 07:05:48;;;;;;;27.75;16.52;;;;;;;-145.50;100.00;65435.88;4953057;28;20272;-72
2021/05/30 07:08:14;;;;;;;29.35;14.50;;;;;;;-145.50;100.00;65435.88;4976985;28;20082;-72
2021/05/30 07:10:41;;;;;;;26.42;16.63;;;;;;;-145.50;100.00;65435.88;4971896;28;20054;-72
2021/05/30 07:13:07;;;;;;;26.48;15.82;;;;;;;-145.50;100.00;65435.88;4967220;28;20084;-72
2021/05/30 07:15:34;;;;;;;26.38;15.70;;;;;;;-145.50;100.00;65435.88;4977994;28;20451;-74
2021/05/30 07:18:01;;;;;;;27.15;16.52;;;;;;;-145.50;100.00;65435.88;4978610;28;20057;-72
2021/05/30 07:20:27;;;;;;;24.67;15.73;;;;;;;-145.50;100.00;65435.88;4975401;28;20498;-72
2021/05/30 07:22:54;;;;;;;27.40;16.65;;;;;;;-145.50;100.00;65435.88;4974286;28;20113;-72
2021/05/30 07:25:20;;;;;;;23.25;15.98;;;;;;;-145.50;100.00;65435.88;4962991;28;20053;-72
2021/05/30 07:27:47;;;;;;;28.25;17.63;;;;;;;-145.50;100.00;65435.88;4974499;28;20078;-72
2021/05/30 07:30:14;;;;;;;26.02;16.92;;;;;;;-145.50;100.00;65435.88;4977888;28;20054;-74
2021/05/30 07:32:40;;;;;;;25.40;15.45;;;;;;;-145.50;100.00;65435.88;4968057;28;20157;-73
2021/05/30 07:35:08;;;;;;;25.63;16.60;;;;;;;-145.50;100.00;65435.88;4973314;28;20058;-72
2021/05/30 07:37:34;;;;;;;26.80;15.43;;;;;;;-145.50;100.00;65435.88;4985211;28;20957;-72
2021/05/30 07:40:02;;;;;;;25.20;15.60;;;;;;;-145.50;100.00;65435.88;4970661;28;20056;-73
2021/05/30 07:42:29;;;;;;;24.33;15.68;;;;;;;-145.50;100.00;65435.88;4980127;28;20058;-72
2021/05/30 07:44:55;;;;;;;29.02;16.40;;;;;;;-145.50;100.00;65435.88;4956340;28;20114;-72
2021/05/30 07:47:23;;;;;;;23.80;15.57;;;;;;;-145.50;100.00;65435.88;4978240;28;20137;-73
2021/05/30 07:49:50;;;;;;;21.75;15.00;;;;;;;-145.50;100.00;65435.88;4972341;28;20112;-73
2021/05/30 07:52:17;;;;;;;26.27;16.65;;;;;;;-145.50;100.00;65435.88;4981942;28;20526;-73
2021/05/30 07:54:43;;;;;;;27.77;15.45;;;;;;;-145.50;100.00;65435.88;4979465;28;20161;-73
2021/05/30 07:57:10;;;;;;;24.35;14.43;;;;;;;-145.50;100.00;65435.88;4974203;28;20140;-72
2021/05/30 07:59:38;;;;;;;25.35;15.73;;;;;;;-145.50;100.00;65435.88;4977026;28;20125;-73
2021/05/30 08:02:05;;;;;;;25.00;15.75;;;;;;;-145.50;100.00;65435.88;4965402;28;20054;-73
2021/05/30 08:04:31;;;;;;;20.95;14.57;;;;;;;-145.50;100.00;65435.88;4976863;28;20133;-73
2021/05/30 08:06:58;;;;;;;24.40;16.13;;;;;;;-145.50;100.00;65435.88;4973229;28;20137;-73
2021/05/30 08:09:24;;;;;;;25.77;14.55;;;;;;;-145.50;100.00;65435.88;4974113;28;20086;-73
2021/05/30 08:11:53;;;;;;;23.25;15.25;;;;;;;-145.50;100.00;65435.88;4980595;28;20086;-72
2021/05/30 08:14:21;;;;;;;20.98;14.27;;;;;;;-145.50;100.00;65435.88;4972239;28;20054;-72
2021/05/30 08:16:48;;;;;;;21.50;14.80;;;;;;;-145.50;100.00;65435.88;4974518;28;20046;-72
2021/05/30 08:19:14;;;;;;;21.88;14.27;;;;;;;-145.50;100.00;65435.88;4976269;28;20330;-72
2021/05/30 08:21:42;;;;;;;20.90;15.20;;;;;;;-145.50;100.00;65435.88;4962565;28;20140;-72
2021/05/30 08:24:10;;;;;;;24.60;16.23;;;;;;;-145.50;100.00;65435.88;4979020;28;20164;-73
2021/05/30 08:26:51;;;;;;;22.77;15.55;;;;;;;-145.50;100.00;65435.88;4960379;28;20108;-71
2021/05/30 08:29:18;;;;;;;20.92;14.85;;;;;;;-145.50;100.00;65435.88;4969190;28;20160;-72
2021/05/30 08:31:45;;;;;;;23.17;15.52;;;;;;;-145.50;100.00;65435.88;4967839;28;20150;-71
2021/05/30 08:34:11;;;;;;;23.02;15.38;;;;;;;-145.50;100.00;65435.88;4977078;28;20547;-71
2021/05/30 08:36:39;;;;;;;25.63;16.08;;;;;;;-145.50;100.00;65435.88;4953518;28;20503;-71
2021/05/30 08:39:05;;;;;;;22.08;14.40;;;;;;;-145.50;100.00;65435.88;4958382;28;20058;-71
2021/05/30 08:41:37;;;;;;;23.58;15.32;;;;;;;-145.50;100.00;65435.88;4975049;28;20465;-72
2021/05/30 08:44:05;;;;;;;21.17;14.23;;;;;;;-145.50;100.00;65435.88;4967640;28;20567;-72
2021/05/30 08:46:31;;;;;;;24.35;15.35;;;;;;;-145.50;100.00;65435.88;4977688;28;20568;-71
2021/05/30 08:49:01;;;;;;;23.08;14.63;;;;;;;-145.50;100.00;65435.88;4971725;28;20106;-71
2021/05/30 08:51:27;;;;;;;24.35;15.70;;;;;;;-145.50;100.00;65435.88;4978701;28;20107;-71
2021/05/30 08:53:54;;;;;;;21.65;15.25;;;;;;;-145.50;100.00;65435.88;4956686;28;20051;-71
2021/05/30 08:56:21;;;;;;;22.58;15.13;;;;;;;-145.50;100.00;65435.88;4978302;28;20165;-72
2021/05/30 08:58:49;;;;;;;23.40;14.63;;;;;;;-145.50;100.00;65435.88;4974406;28;20054;-72
2021/05/30 09:01:21;;;;;;;20.33;14.93;;;;;;;-145.50;100.00;65435.88;4974723;28;20090;-70
2021/05/30 09:03:55;;;;;;;22.10;15.35;;;;;;;-145.50;100.00;65435.88;4963964;28;20061;-72
2021/05/30 09:06:23;;;;;;;21.27;13.30;;;;;;;-145.50;100.00;65435.88;4972191;28;20133;-72
2021/05/30 09:08:53;;;;;;;20.73;14.80;;;;;;;-145.50;100.00;65435.88;4976108;28;20166;-72
2021/05/30 09:11:40;;;;;;;22.95;16.98;;;;;;;-145.50;100.00;65435.88;4969898;28;20062;-72
2021/05/30 09:14:19;;;;;;;23.38;16.10;;;;;;;-145.50;100.00;65435.88;4972687;28;20478;-72
2021/05/30 09:16:48;;;;;;;21.60;14.82;;;;;;;-145.50;100.00;65435.88;4972303;28;20204;-72
2021/05/30 09:19:34;;;;;;;18.25;14.10;;;;;;;-145.50;100.00;65435.88;4974698;28;20054;-72
2021/05/30 09:22:20;;;;;;;20.25;14.13;;;;;;;-145.50;100.00;65435.88;4969171;28;20073;-72
2021/05/30 09:24:49;;;;;;;18.95;13.48;;;;;;;-145.50;100.00;65435.88;4975354;28;20132;-72
2021/05/30 09:27:32;;;;;;;18.88;13.70;;;;;;;-145.50;100.00;65435.88;4971896;28;20051;-72
2021/05/30 09:30:07;;;;;;;19.88;14.20;;;;;;;-145.50;100.00;65435.88;4968694;28;20621;-72
2021/05/30 09:33:04;;;;;;;15.90;12.88;;;;;;;-145.50;100.00;65435.88;4968634;28;20363;-73
2021/05/30 09:35:36;;;;;;;16.92;12.73;;;;;;;-145.50;100.00;65435.88;4965382;28;20568;-72
2021/05/30 09:38:14;;;;;;;17.80;12.95;;;;;;;-145.50;100.00;65435.88;4974164;28;20039;-73
2021/05/30 09:40:43;;;;;;;17.90;13.45;;;;;;;-145.50;100.00;65435.88;4969271;28;20054;-73
2021/05/30 09:43:14;;;;;;;18.55;13.32;;;;;;;-145.50;100.00;65435.88;4977467;28;20616;-73
2021/05/30 09:45:54;;;;;;;16.58;11.93;;;;;;;-145.50;100.00;65435.88;4969795;28;20488;-73
2021/05/30 09:48:21;;;;;;;18.45;13.68;;;;;;;-145.50;100.00;65435.88;4970562;28;20199;-73
2021/05/30 09:51:04;;;;;;;16.23;11.88;;;;;;;-145.50;100.00;65435.88;4980393;28;20101;-73
2021/05/30 09:53:40;;;;;;;15.82;11.52;;;;;;;-145.50;100.00;65435.88;4976696;28;20078;-71
2021/05/30 09:56:26;;;;;;;14.38;11.68;;;;;;;-145.50;100.00;65435.88;4981073;28;20141;-71
2021/05/30 09:58:53;;;;;;;17.13;12.98;;;;;;;-145.50;100.00;65435.88;4969815;28;20046;-71
2021/05/30 10:01:19;;;;;;;18.30;13.15;;;;;;;-145.50;100.00;65435.88;4975146;28;20120;-72
2021/05/30 10:03:46;;;;;;;17.38;12.60;;;;;;;-145.50;100.00;65435.88;4969828;28;20054;-71
2021/05/30 10:06:13;;;;;;;13.93;10.95;;;;;;;-145.50;100.00;65435.88;4976785;28;20139;-71
2021/05/30 10:08:40;;;;;;;13.93;10.68;;;;;;;-145.50;100.00;65435.88;4967522;28;20046;-72
2021/05/30 10:11:07;;;;;;;12.45;10.50;;;;;;;-145.50;100.00;65435.88;4976791;28;20143;-72
2021/05/30 10:13:33;;;;;;;15.50;10.23;;;;;;;-145.50;100.00;65435.88;4973478;28;20145;-72
2021/05/30 10:16:00;;;;;;;16.85;10.93;;;;;;;-145.50;100.00;65435.88;4966094;28;20057;-72
2021/05/30 10:18:34;;;;;;;13.93;10.07;;;;;;;-145.50;100.00;65435.88;4980152;28;20533;-73
2021/05/30 10:21:01;;;;;;;12.48;10.02;;;;;;;-145.50;100.00;65435.88;4973084;28;20086;-73
2021/05/30 10:23:29;;;;;;;11.43;9.60;;;;;;;-145.50;100.00;65435.88;4975517;28;20081;-73
2021/05/30 10:26:16;;;;;;;9.20;7.63;;;;;;;-145.50;100.00;65435.88;4973231;28;20085;-72
2021/05/30 10:29:12;;;;;;;11.40;7.60;;;;;;;-145.50;100.00;65435.88;4970128;28;20046;-72
2021/05/30 10:31:41;;;;;;;10.73;7.20;;;;;;;-145.50;100.00;65435.88;4947847;28;20466;-72
2021/05/30 10:34:11;;;;;;;10.82;7.68;;;;;;;-145.50;100.00;65435.88;4976030;28;20154;-72
2021/05/30 10:37:02;;;;;;;11.98;7.75;;;;;;;-145.50;100.00;65435.88;4980932;28;20046;-72
2021/05/30 10:39:29;;;;;;;11.68;8.07;;;;;;;-145.50;100.00;65435.88;4972290;28;20152;-72
2021/05/30 10:42:09;;;;;;;10.65;7.32;;;;;;;-145.50;100.00;65435.88;4961069;28;20332;-72
2021/05/30 10:44:51;;;;;;;8.55;6.88;;;;;;;-145.50;100.00;65435.88;4968077;28;20433;-73
2021/05/30 10:47:18;;;;;;;8.30;6.15;;;;;;;-145.50;100.00;65435.88;4981742;28;20097;-72
2021/05/30 10:50:16;;;;;;;9.23;6.93;;;;;;;-145.50;100.00;65435.88;4967845;28;20521;-72
2021/05/30 10:52:53;;;;;;;9.65;6.57;;;;;;;-145.50;100.00;65435.88;4975709;28;20482;-72
2021/05/30 10:55:27;;;;;;;11.48;8.77;;;;;;;-145.50;100.00;65435.88;4970214;28;20427;-72
2021/05/30 10:57:54;;;;;;;9.63;7.78;;;;;;;-145.50;100.00;65435.88;4976655;28;20058;-72
2021/05/30 11:00:21;;;;;;;10.23;7.40;;;;;;;-145.50;100.00;65435.88;4972273;28;20491;-72
2021/05/30 11:03:06;;;;;;;9.40;7.07;;;;;;;-145.50;100.00;65435.88;4980789;28;20061;-72
2021/05/30 11:05:50;;;;;;;12.13;6.10;;;;;;;-145.50;100.00;65435.88;4963143;28;20125;-72